Time;durP1;ratioP1;P1;durP2;ratioP2;P2;SDS_P1;SDS_P2;PMS_P1;PMS_P2;Temp;Humidity;BMP_temperature;BMP_pressure;BME280_temperature;BME280_humidity;BME280_pressure;Samples;Min_cycle;Max_cycle;Signal;HPM_P1;HPM_P2
2021/09/15 00:04:51;;;;;;;26.70;16.30;;;;;;;16.70;100.00;99308.50;4422006;79;28502;-82
2021/09/15 00:10:53;;;;;;;25.85;15.45;;;;;;;16.69;100.00;99300.89;4359914;81;28491;-82
2021/09/15 00:16:54;;;;;;;25.27;15.83;;;;;;;16.67;100.00;99297.63;4361397;80;28440;-83
2021/09/15 00:22:55;;;;;;;25.90;15.32;;;;;;;16.57;100.00;99291.63;4382710;81;28481;-81
2021/09/15 00:28:56;;;;;;;21.45;15.35;;;;;;;16.54;100.00;99298.13;4344657;80;28532;-83
2021/09/15 00:34:58;;;;;;;22.95;16.05;;;;;;;16.64;100.00;99308.20;4407634;80;28507;-83
2021/09/15 00:40:59;;;;;;;26.48;16.75;;;;;;;16.42;100.00;99307.82;4303016;82;28441;-81
2021/09/15 00:47:00;;;;;;;25.50;16.50;;;;;;;16.30;100.00;99298.00;4346553;81;28475;-81
2021/09/15 00:53:02;;;;;;;27.13;17.12;;;;;;;16.34;100.00;99303.72;4374186;81;28448;-84
2021/09/15 00:59:05;;;;;;;26.55;16.37;;;;;;;16.10;100.00;99310.91;4360788;81;28489;-82
2021/09/15 01:05:08;;;;;;;24.27;16.17;;;;;;;16.27;100.00;99322.95;4335819;80;28445;-84
2021/09/15 01:11:10;;;;;;;24.55;15.75;;;;;;;16.05;100.00;99312.22;4370169;81;28462;-85
2021/09/15 01:17:13;;;;;;;22.45;15.03;;;;;;;16.09;100.00;99310.63;4354142;81;28482;-84
2021/09/15 01:23:34;;;;;;;21.70;14.78;;;;;;;16.00;100.00;99312.99;4358649;80;28484;-84
2021/09/15 01:29:44;;;;;;;23.18;14.65;;;;;;;15.99;100.00;99312.72;4371262;81;28503;-83
2021/09/15 01:35:47;;;;;;;21.87;14.38;;;;;;;15.89;100.00;99309.38;4320080;81;28485;-83
2021/09/15 01:41:51;;;;;;;22.95;14.93;;;;;;;15.82;100.00;99302.52;4373756;80;28457;-83
2021/09/15 01:47:53;;;;;;;22.95;14.90;;;;;;;15.72;100.00;99291.91;4438493;80;28528;-81
2021/09/15 01:53:56;;;;;;;21.17;14.10;;;;;;;15.62;100.00;99295.88;4455133;79;28563;-83
2021/09/15 01:59:59;;;;;;;21.45;13.68;;;;;;;15.72;100.00;99296.49;4381630;81;28504;-82
2021/09/15 02:06:15;;;;;;;20.12;13.85;;;;;;;15.69;100.00;99300.53;4313368;81;28487;-83
2021/09/15 02:12:18;;;;;;;21.12;13.43;;;;;;;15.77;100.00;99296.52;4382781;81;28480;-82
2021/09/15 02:18:19;;;;;;;23.12;15.80;;;;;;;15.62;100.00;99295.88;4385887;81;28468;-83
2021/09/15 02:24:30;;;;;;;24.05;15.78;;;;;;;15.51;100.00;99297.67;4369728;81;28467;-84
2021/09/15 02:30:36;;;;;;;24.37;15.13;;;;;;;15.46;100.00;99298.44;4375207;81;28583;-82
2021/09/15 02:36:39;;;;;;;29.23;17.85;;;;;;;15.50;100.00;99301.98;4377606;81;28540;-82
2021/09/15 02:42:42;;;;;;;27.73;17.32;;;;;;;15.38;100.00;99299.45;4312188;81;28461;-82
2021/09/15 02:48:45;;;;;;;25.60;16.35;;;;;;;15.33;100.00;99293.45;4294123;83;28543;-83
2021/09/15 02:54:48;;;;;;;22.73;15.18;;;;;;;15.18;100.00;99294.12;4297185;83;28572;-81
2021/09/15 03:01:00;;;;;;;25.30;16.07;;;;;;;14.95;100.00;99297.92;4298685;83;28484;-83
2021/09/15 03:07:04;;;;;;;28.95;18.65;;;;;;;14.73;100.00;99296.86;4297214;83;28500;-83
2021/09/15 03:13:07;;;;;;;35.28;24.37;;;;;;;14.96;100.00;99298.20;4299018;83;28638;-83
2021/09/15 03:19:08;;;;;;;35.33;24.30;;;;;;;14.73;100.00;99299.56;4323411;81;28482;-84
2021/09/15 03:25:11;;;;;;;34.53;22.60;;;;;;;14.72;100.00;99300.64;4320457;82;28481;-83
2021/09/15 03:31:13;;;;;;;33.53;22.48;;;;;;;14.58;100.00;99300.71;4321423;82;28492;-84
2021/09/15 03:37:16;;;;;;;28.92;20.25;;;;;;;14.45;100.00;99295.13;4358624;79;28496;-84
2021/09/15 03:43:18;;;;;;;33.25;21.57;;;;;;;14.81;100.00;99288.02;4375258;81;28530;-83
2021/09/15 03:49:21;;;;;;;34.05;23.18;;;;;;;14.58;100.00;99290.72;4397060;81;28466;-84
2021/09/15 03:55:22;;;;;;;36.45;24.30;;;;;;;14.40;100.00;99295.08;4396822;81;28457;-83
2021/09/15 04:01:37;;;;;;;37.33;25.62;;;;;;;14.61;100.00;99295.62;4317192;82;28554;-82
2021/09/15 04:07:39;;;;;;;38.98;25.80;;;;;;;14.50;100.00;99300.06;4317181;82;28488;-84
2021/09/15 04:13:41;;;;;;;27.90;17.77;;;;;;;14.35;100.00;99303.94;4316772;82;28466;-83
2021/09/15 04:19:44;;;;;;;30.85;20.10;;;;;;;14.29;100.00;99305.75;4317094;81;28556;-82
2021/09/15 04:32:00;;;;;;;34.40;22.27;;;;;;;14.49;100.00;99311.16;4253031;82;28517;-83
2021/09/15 04:38:03;;;;;;;38.28;23.73;;;;;;;14.57;100.00;99306.64;4296232;81;28505;-83
2021/09/15 04:44:04;;;;;;;46.08;25.17;;;;;;;14.75;100.00;99299.32;4244362;84;28461;-83
2021/09/15 04:50:07;;;;;;;45.10;24.43;;;;;;;14.95;100.00;99304.17;4238739;84;28481;-84
2021/09/15 04:56:08;;;;;;;45.00;22.93;;;;;;;15.20;100.00;99301.45;4193771;82;28553;-83
2021/09/15 05:02:16;;;;;;;36.65;22.27;;;;;;;15.28;100.00;99302.87;4220814;82;28508;-83
2021/09/15 05:08:19;;;;;;;33.42;19.32;;;;;;;15.33;100.00;99295.61;4328637;81;28438;-83
2021/09/15 05:14:21;;;;;;;27.20;17.42;;;;;;;15.59;100.00;99301.27;4393125;81;28448;-82
2021/09/15 05:20:23;;;;;;;27.52;16.35;;;;;;;15.71;100.00;99307.86;4393105;81;28444;-82
2021/09/15 05:26:25;;;;;;;27.98;18.05;;;;;;;15.88;100.00;99314.52;4392833;81;28530;-81
2021/09/15 05:32:26;;;;;;;27.17;17.90;;;;;;;15.90;100.00;99302.08;4393443;80;28470;-83
2021/09/15 05:38:30;;;;;;;30.55;18.50;;;;;;;16.38;100.00;99304.02;4393903;80;28492;-84
2021/09/15 05:44:42;;;;;;;36.13;19.25;;;;;;;16.46;100.00;99295.38;4350857;81;28473;-84
2021/09/15 05:50:45;;;;;;;27.93;17.48;;;;;;;16.46;100.00;99292.66;4387322;81;28510;-83
2021/09/15 05:56:47;;;;;;;27.00;17.48;;;;;;;16.23;100.00;99286.55;4311728;81;28477;-85
2021/09/15 06:02:49;;;;;;;27.55;18.20;;;;;;;16.35;100.00;99294.50;4325792;81;28489;-84
2021/09/15 06:09:09;;;;;;;27.70;17.48;;;;;;;16.34;100.00;99295.58;4253487;82;28441;-84
2021/09/15 06:22:59;;;;;;;27.35;17.10;;;;;;;16.93;100.00;99292.83;4155447;84;28529;-87
2021/09/15 06:29:11;;;;;;;30.25;18.02;;;;;;;17.16;100.00;99289.38;4299659;83;28527;-85
2021/09/15 06:35:13;;;;;;;28.98;18.02;;;;;;;17.58;100.00;99294.34;4249025;82;28504;-85
2021/09/15 06:41:15;;;;;;;25.23;16.25;;;;;;;17.65;100.00;99289.42;4206589;82;28560;-84
2021/09/15 06:47:17;;;;;;;24.85;15.38;;;;;;;17.42;100.00;99275.28;4175745;83;28550;-83
2021/09/15 06:53:18;;;;;;;26.93;15.78;;;;;;;16.99;100.00;99275.48;4227708;82;28472;-84
2021/09/15 06:59:21;;;;;;;22.73;15.75;;;;;;;17.24;100.00;99276.63;4211851;82;28541;-83
2021/09/15 07:05:22;;;;;;;25.05;15.43;;;;;;;17.40;100.00;99279.66;4224068;82;28474;-82
2021/09/15 07:11:23;;;;;;;29.90;16.90;;;;;;;17.40;100.00;99274.75;4361856;81;28469;-83
2021/09/15 07:17:25;;;;;;;26.10;16.15;;;;;;;17.84;100.00;99270.11;4448515;80;28500;-86
2021/09/15 07:23:26;;;;;;;31.48;17.45;;;;;;;17.69;100.00;99272.86;4374388;81;28494;-86
2021/09/15 07:29:27;;;;;;;27.62;16.15;;;;;;;17.74;100.00;99267.39;4328908;81;28438;-87
2021/09/15 07:35:28;;;;;;;26.77;17.05;;;;;;;18.15;100.00;99263.02;4316670;80;28512;-87
2021/09/15 07:41:30;;;;;;;29.32;16.95;;;;;;;18.28;100.00;99272.52;4303052;81;28520;-89
2021/09/15 07:47:32;;;;;;;28.12;17.05;;;;;;;18.71;100.00;99266.08;4292190;81;28517;-89
2021/09/15 07:53:33;;;;;;;31.87;19.42;;;;;;;18.72;100.00;99264.19;4298589;81;28449;-89
2021/09/15 07:59:35;;;;;;;30.75;17.65;;;;;;;18.69;100.00;99256.02;4292823;81;28532;-88
2021/09/15 08:05:36;;;;;;;24.43;16.50;;;;;;;19.13;100.00;99259.89;4301764;81;28503;-83
2021/09/15 08:11:38;;;;;;;25.35;16.42;;;;;;;19.00;100.00;99259.11;4275219;83;28444;-85
2021/09/15 08:17:39;;;;;;;25.35;16.10;;;;;;;19.42;100.00;99255.06;4322525;81;28457;-86
2021/09/15 08:23:40;;;;;;;22.02;15.18;;;;;;;19.65;100.00;99254.05;4294571;81;28481;-84
2021/09/15 08:29:42;;;;;;;28.25;15.70;;;;;;;19.83;100.00;99250.31;4295434;81;28493;-80
2021/09/15 08:35:43;;;;;;;29.50;18.75;;;;;;;20.01;100.00;99253.72;4294208;81;28573;-81
2021/09/15 08:41:46;;;;;;;23.52;16.02;;;;;;;19.84;100.00;99254.13;4298227;81;28484;-81
2021/09/15 08:47:52;;;;;;;21.80;15.98;;;;;;;20.34;100.00;99257.98;4282392;80;28511;-83
2021/09/15 08:53:55;;;;;;;23.42;16.37;;;;;;;20.45;100.00;99251.88;4272750;81;28492;-82
2021/09/15 08:59:57;;;;;;;24.00;16.37;;;;;;;20.80;100.00;99247.61;4310896;81;28492;-80
2021/09/15 09:06:13;;;;;;;26.25;15.75;;;;;;;21.16;100.00;99236.73;4295354;81;28453;-81
2021/09/15 09:12:18;;;;;;;23.92;16.23;;;;;;;21.11;100.00;99238.17;4301894;81;28511;-81
2021/09/15 09:18:20;;;;;;;24.30;15.10;;;;;;;21.65;100.00;99234.56;4305380;81;28461;-80
2021/09/15 09:24:24;;;;;;;22.95;15.08;;;;;;;21.82;100.00;99220.91;4369349;81;28476;-82
2021/09/15 09:30:38;;;;;;;25.20;15.65;;;;;;;21.64;100.00;99215.16;4355335;81;28511;-82
2021/09/15 09:36:39;;;;;;;20.95;14.47;;;;;;;21.92;100.00;99213.05;4356184;82;28493;-84
2021/09/15 09:42:42;;;;;;;21.00;14.70;;;;;;;22.15;100.00;99196.18;4354587;82;28465;-80
2021/09/15 09:48:50;;;;;;;21.45;15.32;;;;;;;22.09;100.00;99195.48;4349968;81;28505;-83
2021/09/15 09:55:01;;;;;;;21.40;15.32;;;;;;;22.20;100.00;99197.43;4352594;82;28461;-80
2021/09/15 10:01:03;;;;;;;23.40;14.38;;;;;;;22.36;100.00;99180.13;4341962;79;28514;-82
2021/09/15 10:07:05;;;;;;;19.57;14.25;;;;;;;22.50;100.00;99178.77;4290411;81;28468;-82
2021/09/15 10:13:10;;;;;;;18.50;14.43;;;;;;;22.73;100.00;99170.58;4316709;81;28477;-82
2021/09/15 10:19:15;;;;;;;20.95;13.78;;;;;;;23.02;100.00;99174.05;4293548;81;28494;-83
2021/09/15 10:25:17;;;;;;;20.77;14.13;;;;;;;23.07;100.00;99174.73;4314364;81;28525;-83
2021/09/15 10:31:52;;;;;;;21.30;14.45;;;;;;;23.23;100.00;99175.72;4291576;81;28485;-82
2021/09/15 10:37:53;;;;;;;20.40;13.68;;;;;;;23.18;100.00;99174.48;4286153;81;28532;-83
2021/09/15 10:44:07;;;;;;;19.95;13.95;;;;;;;23.46;100.00;99164.74;4288187;81;28528;-82
2021/09/15 10:50:12;;;;;;;21.82;14.47;;;;;;;23.71;100.00;99156.97;4265161;81;28540;-83
2021/09/15 10:56:38;;;;;;;22.67;15.10;;;;;;;23.67;100.00;99159.53;4319692;81;28456;-82
2021/09/15 11:02:43;;;;;;;16.80;12.80;;;;;;;23.83;100.00;99154.98;4292402;81;28474;-82
2021/09/15 11:08:52;;;;;;;17.98;13.22;;;;;;;24.07;100.00;99139.50;4282867;82;28488;-78
2021/09/15 11:14:57;;;;;;;16.30;12.53;;;;;;;24.12;100.00;99142.67;4275550;83;28489;-78
2021/09/15 11:21:04;;;;;;;18.10;13.05;;;;;;;24.52;100.00;99128.83;4276377;83;28500;-79
2021/09/15 11:27:07;;;;;;;16.00;11.55;;;;;;;24.38;100.00;99129.56;4276744;83;28503;-78
2021/09/15 11:33:09;;;;;;;17.65;12.13;;;;;;;24.58;100.00;99129.48;4276780;82;28491;-78
2021/09/15 11:39:12;;;;;;;14.43;10.72;;;;;;;24.34;100.00;99130.18;4276702;83;28489;-78
2021/09/15 11:45:19;;;;;;;12.45;10.23;;;;;;;24.59;97.76;99122.30;4263352;83;28484;-78
2021/09/15 11:51:25;;;;;;;16.45;9.95;;;;;;;24.73;93.67;99114.44;4277343;83;28523;-80
2021/09/15 11:57:32;;;;;;;11.22;9.18;;;;;;;24.90;86.73;99110.34;4277496;82;28527;-76
2021/09/15 12:03:31;;;;;;;11.33;8.55;;;;;;;25.18;87.05;99100.31;4331142;81;28519;-77
2021/09/15 12:09:35;;;;;;;12.20;9.33;;;;;;;25.12;82.64;99098.89;4202040;84;28474;-77
2021/09/15 12:15:50;;;;;;;12.55;9.10;;;;;;;25.17;80.61;99093.78;4196323;85;28546;-77
2021/09/15 12:21:52;;;;;;;11.80;7.92;;;;;;;25.41;78.71;99089.09;4196842;85;28442;-77
2021/09/15 12:27:58;;;;;;;12.13;8.28;;;;;;;25.71;77.01;99078.70;4199332;85;28482;-77
2021/09/15 12:34:03;;;;;;;10.53;8.08;;;;;;;25.42;74.40;99070.63;4296828;82;28481;-77
2021/09/15 12:40:07;;;;;;;11.03;8.45;;;;;;;25.19;69.88;99070.29;4301775;83;28499;-77
2021/09/15 12:46:29;;;;;;;10.28;8.03;;;;;;;25.55;75.02;99056.44;4323554;82;28562;-78
2021/09/15 12:52:31;;;;;;;11.05;7.72;;;;;;;25.64;74.16;99052.25;4323409;81;28465;-78
2021/09/15 12:58:32;;;;;;;11.55;8.33;;;;;;;25.79;74.22;99039.30;4345739;79;28492;-77
2021/09/15 13:04:35;;;;;;;9.63;7.45;;;;;;;25.99;73.05;99031.40;4315278;82;28463;-77
2021/09/15 13:10:36;;;;;;;10.18;7.17;;;;;;;25.66;68.37;99031.52;4295380;82;28508;-78
2021/09/15 13:16:38;;;;;;;8.40;6.80;;;;;;;25.99;70.21;99011.53;4295213;82;28557;-78
2021/09/15 13:22:42;;;;;;;8.30;6.70;;;;;;;26.05;70.79;99010.76;4290256;82;28460;-79
2021/09/15 13:28:43;;;;;;;8.80;7.03;;;;;;;26.37;68.73;99000.73;4305992;82;28488;-78
2021/09/15 13:34:44;;;;;;;7.97;5.92;;;;;;;26.10;67.23;99002.31;4305575;81;28584;-78
2021/09/15 13:40:46;;;;;;;8.80;7.00;;;;;;;25.96;65.01;98994.87;4328943;81;28453;-79
2021/09/15 13:46:47;;;;;;;7.25;6.28;;;;;;;26.23;66.55;98991.37;4315167;81;28516;-76
2021/09/15 13:52:50;;;;;;;7.87;6.08;;;;;;;26.54;67.25;98984.59;4235824;83;28510;-76
2021/09/15 13:58:51;;;;;;;9.18;6.33;;;;;;;26.39;63.87;98978.56;4251251;83;28484;-78
2021/09/15 14:04:52;;;;;;;8.45;6.17;;;;;;;26.62;64.72;98971.30;4285572;83;28489;-77
2021/09/15 14:10:55;;;;;;;9.23;6.50;;;;;;;26.70;64.23;98965.45;4297482;83;28495;-79
2021/09/15 14:16:57;;;;;;;7.62;5.90;;;;;;;26.51;61.73;98959.09;4310309;83;28489;-78
2021/09/15 14:23:01;;;;;;;10.65;5.80;;;;;;;26.71;63.81;98950.52;4291907;83;28500;-77
2021/09/15 14:29:04;;;;;;;9.30;6.08;;;;;;;26.89;66.80;98941.48;4293979;81;28500;-77
2021/09/15 14:35:06;;;;;;;8.18;6.05;;;;;;;26.72;65.65;98943.29;4295041;81;28505;-78
2021/09/15 14:41:15;;;;;;;12.55;6.35;;;;;;;26.92;63.86;98934.48;4302164;82;28473;-81
2021/09/15 14:47:16;;;;;;;9.55;6.22;;;;;;;26.56;63.31;98932.67;4312213;81;28455;-83
2021/09/15 14:53:17;;;;;;;9.10;6.10;;;;;;;26.69;62.96;98933.52;4311579;83;28454;-81
2021/09/15 14:59:19;;;;;;;8.00;6.10;;;;;;;26.91;62.33;98928.73;4356718;82;28501;-81
2021/09/15 15:05:20;;;;;;;8.85;6.42;;;;;;;26.66;62.71;98930.86;4310278;83;28506;-83
2021/09/15 15:11:21;;;;;;;9.33;6.47;;;;;;;26.66;64.37;98933.62;4310308;83;28462;-80
2021/09/15 15:17:23;;;;;;;10.88;7.03;;;;;;;26.77;64.47;98933.17;4309635;83;28471;-81
2021/09/15 15:23:24;;;;;;;8.55;6.80;;;;;;;26.80;65.30;98935.23;4309690;82;28533;-82
2021/09/15 15:29:26;;;;;;;12.73;7.40;;;;;;;26.48;69.95;98937.70;4309080;83;28512;-82
2021/09/15 15:35:28;;;;;;;9.98;7.35;;;;;;;26.47;69.96;98934.72;4309993;82;28446;-81
2021/09/15 15:41:29;;;;;;;10.50;7.67;;;;;;;26.27;72.18;98927.55;4309637;83;28496;-82
2021/09/15 15:47:31;;;;;;;9.88;8.10;;;;;;;26.02;74.78;98924.09;4310641;83;28439;-82
2021/09/15 15:53:32;;;;;;;10.43;8.38;;;;;;;25.90;76.72;98921.29;4373091;81;28511;-82
2021/09/15 15:59:33;;;;;;;11.80;7.90;;;;;;;26.13;75.25;98912.09;4365098;80;28465;-83
2021/09/15 16:05:36;;;;;;;10.32;7.85;;;;;;;25.98;76.66;98918.22;4419765;80;28560;-84
2021/09/15 16:11:37;;;;;;;11.10;7.87;;;;;;;25.83;79.01;98910.82;4362169;80;28479;-83
2021/09/15 16:17:41;;;;;;;12.03;9.05;;;;;;;25.59;81.92;98920.56;4345982;82;28504;-83
2021/09/15 16:23:42;;;;;;;11.97;8.25;;;;;;;25.64;81.56;98907.73;4294605;82;28472;-83
2021/09/15 16:29:44;;;;;;;16.20;8.78;;;;;;;25.59;82.26;98911.49;4331370;82;28470;-83
2021/09/15 16:35:45;;;;;;;12.58;7.85;;;;;;;25.58;83.03;98907.95;4289281;83;28455;-83
2021/09/15 16:41:46;;;;;;;15.35;8.95;;;;;;;25.47;84.88;98914.38;4289140;83;28560;-83
2021/09/15 16:47:49;;;;;;;13.22;9.10;;;;;;;25.33;87.16;98915.21;4288253;83;28503;-83
2021/09/15 16:53:51;;;;;;;12.95;8.50;;;;;;;25.28;86.99;98914.83;4288859;83;28467;-84
2021/09/15 16:59:53;;;;;;;14.90;8.60;;;;;;;25.09;91.01;98910.33;4282867;82;28488;-82
2021/09/15 17:05:54;;;;;;;12.37;8.75;;;;;;;24.98;94.12;98905.77;4238194;84;28498;-82
2021/09/15 17:11:56;;;;;;;11.63;8.98;;;;;;;25.09;92.13;98908.95;4303433;81;28474;-81
2021/09/15 17:17:57;;;;;;;13.38;9.50;;;;;;;24.97;93.41;98911.84;4329588;81;28504;-82
2021/09/15 17:24:01;;;;;;;14.80;9.33;;;;;;;24.81;96.82;98910.22;4279380;81;28474;-83
2021/09/15 17:30:06;;;;;;;12.58;9.75;;;;;;;24.76;95.80;98919.42;4309226;81;28452;-82
2021/09/15 17:36:08;;;;;;;15.18;10.58;;;;;;;24.58;99.78;98927.48;4273365;81;28472;-84
2021/09/15 17:42:10;;;;;;;17.37;10.50;;;;;;;24.34;100.00;98920.02;4310363;81;28485;-83
2021/09/15 17:48:13;;;;;;;17.07;11.65;;;;;;;24.12;100.00;98914.18;4303056;81;28578;-83
2021/09/15 17:54:15;;;;;;;16.97;11.40;;;;;;;24.07;100.00;98917.90;4283746;83;28484;-87
2021/09/15 18:00:17;;;;;;;17.15;10.65;;;;;;;23.89;100.00;98916.26;4284046;80;28578;-84
2021/09/15 18:06:19;;;;;;;18.00;12.05;;;;;;;23.84;100.00;98928.76;4308743;81;28442;-85
2021/09/15 18:12:21;;;;;;;24.55;14.23;;;;;;;23.66;100.00;98919.95;4276245;83;28462;-83
2021/09/15 18:18:22;;;;;;;20.68;13.30;;;;;;;23.64;100.00;98912.62;4276387;82;28479;-82
2021/09/15 18:24:24;;;;;;;23.22;14.60;;;;;;;23.64;100.00;98912.62;4273725;82;28497;-84
2021/09/15 18:30:25;;;;;;;20.02;13.50;;;;;;;23.54;100.00;98910.19;4317442;82;28454;-81
2021/09/15 18:36:27;;;;;;;24.40;14.18;;;;;;;23.52;100.00;98907.75;4237192;84;28926;-82
2021/09/15 18:42:29;;;;;;;17.40;12.07;;;;;;;23.34;100.00;98896.53;4237907;84;28484;-82
2021/09/15 18:48:30;;;;;;;17.27;13.50;;;;;;;23.26;100.00;98898.08;4237994;83;28488;-82
2021/09/15 18:54:32;;;;;;;21.93;15.32;;;;;;;23.01;100.00;98892.22;4258641;81;28456;-81
2021/09/15 19:00:37;;;;;;;25.62;16.37;;;;;;;22.92;100.00;98888.09;4344779;81;28480;-84
2021/09/15 19:06:40;;;;;;;22.35;14.28;;;;;;;22.95;100.00;98890.75;4299005;81;28472;-84
2021/09/15 19:12:42;;;;;;;24.43;14.65;;;;;;;22.79;100.00;98897.22;4281601;81;28461;-85
2021/09/15 19:18:45;;;;;;;20.97;14.05;;;;;;;22.62;100.00;98893.84;4271326;83;28465;-84
2021/09/15 19:24:50;;;;;;;31.40;18.75;;;;;;;22.47;100.00;98889.00;4295391;81;28535;-83
2021/09/15 19:30:54;;;;;;;28.30;19.07;;;;;;;22.43;100.00;98887.45;4316508;81;28504;-84
2021/09/15 19:36:55;;;;;;;31.52;17.05;;;;;;;22.50;100.00;98894.45;4336504;81;28485;-84
2021/09/15 19:43:02;;;;;;;23.22;16.25;;;;;;;22.42;100.00;98889.13;4295372;82;28473;-86
2021/09/15 19:49:03;;;;;;;34.38;19.42;;;;;;;22.29;100.00;98886.73;4271104;82;28479;-84
2021/09/15 19:55:07;;;;;;;32.35;20.05;;;;;;;22.17;100.00;98883.73;4289223;82;28461;-84
2021/09/15 20:01:09;;;;;;;29.63;19.48;;;;;;;22.13;100.00;98881.64;4302899;81;28490;-83
2021/09/15 20:07:10;;;;;;;32.53;19.92;;;;;;;22.07;100.00;98869.77;4418075;79;28860;-84
2021/09/15 20:13:12;;;;;;;28.67;17.98;;;;;;;22.11;100.00;98872.94;4409737;79;28455;-82
2021/09/15 20:19:13;;;;;;;23.70;16.50;;;;;;;21.94;100.00;98867.33;4392422;79;28520;-84
2021/09/15 20:25:14;;;;;;;29.90;18.15;;;;;;;21.43;100.00;98863.28;4404210;79;28496;-80
2021/09/15 20:31:16;;;;;;;29.90;18.62;;;;;;;21.50;100.00;98870.52;4419429;79;28498;-81
2021/09/15 20:37:19;;;;;;;26.35;17.52;;;;;;;21.22;100.00;98860.20;4372141;79;28450;-81
2021/09/15 20:43:20;;;;;;;28.12;19.35;;;;;;;21.23;100.00;98856.34;4327062;79;28464;-81
2021/09/15 20:49:29;;;;;;;32.05;20.77;;;;;;;21.15;100.00;98853.79;4405806;79;28632;-82
2021/09/15 20:55:33;;;;;;;31.77;20.17;;;;;;;21.00;100.00;98852.19;4341804;79;28448;-84
2021/09/15 21:01:34;;;;;;;36.55;23.40;;;;;;;21.00;100.00;98853.55;4366135;79;28492;-79
2021/09/15 21:07:38;;;;;;;33.73;21.17;;;;;;;21.17;100.00;98843.34;4291057;81;28514;-80
2021/09/15 21:13:40;;;;;;;32.50;20.82;;;;;;;20.98;100.00;98847.02;4297582;81;28540;-83
2021/09/15 21:19:41;;;;;;;33.88;20.52;;;;;;;20.84;100.00;98851.70;4293649;81;28585;-81
2021/09/15 21:25:43;;;;;;;35.15;21.55;;;;;;;20.88;100.00;98849.42;4333021;81;28547;-80
2021/09/15 21:31:45;;;;;;;35.50;22.42;;;;;;;20.73;100.00;98851.87;4301234;81;28439;-80
2021/09/15 21:37:47;;;;;;;34.15;20.92;;;;;;;20.66;100.00;98850.09;4297030;81;28449;-81
2021/09/15 21:43:48;;;;;;;33.95;21.40;;;;;;;20.52;100.00;98853.38;4317988;81;28528;-80
2021/09/15 21:49:49;;;;;;;34.27;21.70;;;;;;;20.56;100.00;98848.34;4310533;81;28435;-81
2021/09/15 21:55:51;;;;;;;35.35;22.17;;;;;;;20.65;100.00;98851.74;4294256;81;28482;-82
2021/09/15 22:01:54;;;;;;;39.05;23.50;;;;;;;20.57;100.00;98848.63;4290773;80;28520;-81
2021/09/15 22:07:58;;;;;;;31.87;19.90;;;;;;;20.60;100.00;98839.00;4347027;80;28449;-81
2021/09/15 22:13:59;;;;;;;33.20;21.20;;;;;;;20.52;100.00;98843.81;4364562;80;28504;-80
2021/09/15 22:20:00;;;;;;;34.53;21.12;;;;;;;20.50;100.00;98839.19;4349736;80;28519;-80
2021/09/15 22:26:04;;;;;;;35.80;22.50;;;;;;;20.51;100.00;98840.80;4350330;80;28500;-80
2021/09/15 22:32:10;;;;;;;36.50;22.45;;;;;;;20.51;100.00;98833.44;4388012;78;28528;-81
2021/09/15 22:38:12;;;;;;;30.97;20.32;;;;;;;20.57;100.00;98832.23;4361525;80;28471;-81
2021/09/15 22:44:13;;;;;;;34.67;21.15;;;;;;;20.65;100.00;98828.53;4367837;80;28441;-80
2021/09/15 22:50:15;;;;;;;35.68;22.58;;;;;;;20.59;100.00;98824.55;4384411;80;28476;-80
2021/09/15 22:56:16;;;;;;;38.23;25.37;;;;;;;20.59;100.00;98824.55;4372556;80;28460;-81
2021/09/15 23:02:18;;;;;;;36.00;21.85;;;;;;;20.57;100.00;98822.69;4341179;80;28622;-81
2021/09/15 23:08:19;;;;;;;35.78;22.05;;;;;;;20.52;100.00;98815.14;4284060;81;28543;-80
2021/09/15 23:14:20;;;;;;;31.05;20.50;;;;;;;20.50;100.00;98814.07;4300071;81;28457;-81
2021/09/15 23:20:23;;;;;;;32.38;21.85;;;;;;;20.46;100.00;98813.04;4291071;81;28502;-81
2021/09/15 23:26:25;;;;;;;37.30;23.45;;;;;;;20.37;100.00;98812.16;4285543;81;28503;-81
2021/09/15 23:32:28;;;;;;;34.18;21.30;;;;;;;20.30;100.00;98811.16;4244530;81;28553;-81
2021/09/15 23:38:30;;;;;;;39.40;23.38;;;;;;;20.01;100.00;98814.97;4290902;81;28493;-81
2021/09/15 23:44:32;;;;;;;36.53;22.65;;;;;;;20.14;100.00;98812.00;4309018;81;28469;-82
2021/09/15 23:50:33;;;;;;;35.80;22.58;;;;;;;19.98;100.00;98810.09;4321041;81;28524;-82
2021/09/15 23:56:35;;;;;;;37.95;22.95;;;;;;;19.84;100.00;98804.59;4303265;81;28485;-80
